Terminal Aerodrome Forecast
Issued by NWS

Home | Current Version | Previous Version | Text Only | Print | Product List | Glossary On
Versions: 1 2 3 4 5 6 7 8 9 10 11 12 13 14 15
000
FTUS43 KFGF 182300
TAFBJI
TAF
KBJI 182320Z 1900/1924 16013KT P6SM SCT040 SCT080
     FM190600 18015KT P6SM BKN250
     FM191500 19013KT P6SM BKN015=

USA.gov is the U.S. government's official web portal to all federal, state and local government web resources and services.